Livingston, MT (59047)

11:01 AM MDT on April 26, 2015 (GMT -0600)
Soaring Eagle | | Change Station
CLOSE
Current Station
Personal Weather Station
Location: Livingston, MT
Elevation: 5187 ft
Nearby Weather Stations

Elev 5187 ft 45.69 °N, 110.61 °W | Updated 15 seconds ago

Snow
Snow
33.9 °F
Feels Like 26 °F
N
10.0
Wind Variable Wind from East
Gusts 0.0 mph

Today
High -- | Low -- °F
--% Chance of Precip.
Yesterday
High -- | Low -- °F
Precip. -- in
6:18 AM 8:22 PM
First Quarter, 57% visible
Pressure 30.02 in
Visibility 5.0 miles
Clouds Overcast 500 ft
Windchill 26 °F
Dew Point 33 °F
Humidity 96%
Rainfall 0.02 in
Snow Depth Not available.
UV 1 out of 12
Pollen 1.80 out of 12
Air Quality Not available.
Flu Activity Local Activity
METAR KLVM 261553Z AUTO 09014KT 5SM -SN BR OVC005 02/01 A2999 RMK AO2 UPE48SNB26E35B39E46B48 SLP164 P0001 T00220011

More Conditions Fewer Conditions

Pressure 30.02 in
Visibility 5.0 miles
Clouds Overcast 500 ft
Windchill 26 °F
Dew Point 33 °F
Humidity 96%
Rainfall 0.02 in
Snow Depth Not available.
UV 1 out of 12
Pollen 1.80 out of 12
Air Quality Not available.
Flu Activity Local Activity
METAR KLVM 261553Z AUTO 09014KT 5SM -SN BR OVC005 02/01 A2999 RMK AO2 UPE48SNB26E35B39E46B48 SLP164 P0001 T00220011

More Conditions Fewer Conditions

The full scope of the disaster following a powerful 7.8-magnitude earthquake in Nepal may not come into view for days, but global charities are already sending emergency aid. Click to see how you can help.

10-Day Weather Forecast

Almanac

Astronomy

Apr. 26, 2015 Rise Set
Actual Time
Civil Twilight
Nautical Twilight
Astronomical Twilight
Moon
Length of Visible Light
Length of Day
Tomorrow will be .
, % of the Moon is Illuminated

Today's Extremes

State Highs State Lows

Community

WunderPhotos

Upload Photos

1,817,057 photos uploaded!

WunderBlogs® & News

Nearby

Air Quality

  Air Quality AQ Index Pollutant
Not available.

Snow Depth

Station Depth Elevation

Earthquake Activity

City Distance Mag. Time & Date
Minimum magnitude displayed is 2.5.

Coastal Water Temperatures

Place Temperature

Stations

Nearby Weather Stations

Station Location Temp. Windchill Dew Point Humidity Wind Precip. Elev Updated Type